Time;durP1;ratioP1;P1;durP2;ratioP2;P2;SDS_P1;SDS_P2;PMS_P1;PMS_P2;Temp;Humidity;BMP_temperature;BMP_pressure;BME280_temperature;BME280_humidity;BME280_pressure;Samples;Min_cycle;Max_cycle;Signal;HPM_P1;HPM_P2
2023/05/20 00:02:07;;;;;;;6.45;2.33;;;;;;;-148.88;76.16;-17125.47;5033230;28;20484;-88
2023/05/20 00:04:32;;;;;;;5.07;2.08;;;;;;;-148.88;75.55;-17125.47;5033151;28;20022;-87
2023/05/20 00:06:58;;;;;;;3.88;1.83;;;;;;;-148.88;75.97;-17125.47;5033770;28;20097;-87
2023/05/20 00:09:23;;;;;;;5.40;2.05;;;;;;;-148.88;75.92;-17125.47;5034017;28;20025;-88
2023/05/20 00:11:49;;;;;;;3.95;2.15;;;;;;;-148.88;75.91;-17125.47;5032270;28;20021;-87
2023/05/20 00:14:14;;;;;;;4.82;2.30;;;;;;;-148.88;75.86;-17125.47;5033278;28;20034;-88
2023/05/20 00:16:40;;;;;;;5.00;2.20;;;;;;;-148.88;76.45;-17125.47;5033157;28;20024;-87
2023/05/20 00:19:06;;;;;;;3.63;1.77;;;;;;;-148.88;76.05;-17125.47;5031875;28;20071;-88
2023/05/20 00:21:32;;;;;;;3.72;1.92;;;;;;;-148.88;75.91;-17125.47;5033367;28;20085;-87
2023/05/20 00:23:58;;;;;;;5.70;2.20;;;;;;;-148.88;76.06;-17125.47;5033313;28;20025;-87
2023/05/20 00:26:23;;;;;;;4.95;2.30;;;;;;;-148.88;76.34;-17125.47;5033017;28;20013;-88
2023/05/20 00:28:49;;;;;;;5.78;1.88;;;;;;;-148.88;76.71;-17125.47;5031581;28;20029;-88
2023/05/20 00:31:14;;;;;;;3.28;1.65;;;;;;;-148.88;76.87;-17125.47;5031376;28;20109;-88
2023/05/20 00:33:40;;;;;;;3.67;2.20;;;;;;;-148.88;77.27;-17125.47;5032776;28;20028;-88
2023/05/20 00:36:06;;;;;;;5.25;1.90;;;;;;;-148.88;77.10;-17125.47;5032756;28;20029;-88
2023/05/20 00:38:32;;;;;;;5.25;2.00;;;;;;;-148.88;76.92;-17125.47;5034365;28;20084;-88
2023/05/20 00:40:58;;;;;;;3.63;1.90;;;;;;;-148.88;76.40;-17125.47;5036592;28;20040;-87
2023/05/20 00:43:25;;;;;;;4.65;2.10;;;;;;;-148.88;77.01;-17125.47;5036479;28;20396;-88
2023/05/20 00:45:52;;;;;;;5.10;1.98;;;;;;;-148.88;76.61;-17125.47;5035631;28;20484;-88
2023/05/20 00:48:17;;;;;;;3.03;1.90;;;;;;;-148.88;77.09;-17125.47;5036668;28;20036;-88
2023/05/20 00:50:43;;;;;;;5.75;2.15;;;;;;;-148.88;77.41;-17125.47;5035144;28;20022;-88
2023/05/20 00:53:09;;;;;;;4.07;2.30;;;;;;;-148.88;77.09;-17125.47;5036140;28;20075;-89
2023/05/20 00:55:34;;;;;;;3.33;2.00;;;;;;;-148.88;77.19;-17125.47;5036180;28;20029;-87
2023/05/20 00:58:00;;;;;;;4.90;2.20;;;;;;;-148.88;77.08;-17125.47;5036203;28;20062;-86
2023/05/20 01:00:25;;;;;;;3.72;2.30;;;;;;;-148.88;77.36;-17125.47;5036049;28;20032;-89
2023/05/20 01:02:51;;;;;;;5.30;2.30;;;;;;;-148.88;77.01;-17125.47;5036007;28;20029;-87
2023/05/20 01:05:16;;;;;;;3.83;2.13;;;;;;;-148.88;76.39;-17125.47;5036067;28;20364;-88
2023/05/20 01:07:42;;;;;;;3.40;1.98;;;;;;;-148.88;76.66;-17125.47;5036107;28;20525;-88
2023/05/20 01:10:08;;;;;;;5.13;2.30;;;;;;;-148.88;76.35;-17125.47;5036302;28;20026;-88
2023/05/20 01:12:36;;;;;;;3.33;2.13;;;;;;;-148.88;76.82;-17125.47;5035967;28;20543;-88
2023/05/20 01:15:07;;;;;;;3.40;2.20;;;;;;;-148.88;77.14;-17125.47;5034632;28;20029;-87
2023/05/20 01:17:38;;;;;;;3.60;2.20;;;;;;;-148.88;77.29;-17125.47;5035849;28;20574;-88
2023/05/20 01:20:06;;;;;;;5.75;2.38;;;;;;;-148.88;77.08;-17125.47;5034874;28;20034;-88
2023/05/20 01:22:32;;;;;;;3.80;2.22;;;;;;;-148.88;77.00;-17125.47;5034663;28;20514;-88
2023/05/20 01:24:57;;;;;;;4.88;2.30;;;;;;;-148.88;77.71;-17125.47;5036009;28;20056;-88
2023/05/20 01:27:23;;;;;;;5.22;2.20;;;;;;;-148.88;77.66;-17125.47;5036185;28;20471;-88
2023/05/20 01:29:50;;;;;;;6.40;2.45;;;;;;;-148.88;77.43;-17125.47;5034726;28;20112;-88
2023/05/20 01:32:20;;;;;;;4.97;2.05;;;;;;;-148.88;77.63;-17125.47;5035560;28;20072;-88
2023/05/20 01:34:48;;;;;;;3.88;2.30;;;;;;;-148.88;77.73;-17125.47;5034340;28;20026;-88
2023/05/20 01:37:14;;;;;;;3.65;2.25;;;;;;;-148.88;77.93;-17125.47;5035887;28;20021;-87
2023/05/20 01:39:41;;;;;;;4.60;2.10;;;;;;;-148.88;77.95;-17125.47;5035802;28;20025;-88
2023/05/20 01:42:08;;;;;;;3.40;2.03;;;;;;;-148.88;78.21;-17125.47;5035529;28;20029;-88
2023/05/20 01:44:34;;;;;;;3.80;2.30;;;;;;;-148.88;77.94;-17125.47;5036047;28;20106;-88
2023/05/20 01:47:00;;;;;;;5.68;2.25;;;;;;;-148.88;78.53;-17125.47;5035713;28;20085;-87
2023/05/20 01:49:26;;;;;;;7.07;2.10;;;;;;;-148.88;79.15;-17125.47;5035740;28;20025;-89
2023/05/20 01:51:51;;;;;;;3.35;2.05;;;;;;;-148.88;79.86;-17125.47;5035763;28;20026;-88
2023/05/20 01:54:17;;;;;;;3.80;2.40;;;;;;;-148.88;79.65;-17125.47;5035109;28;20036;-88
2023/05/20 01:56:43;;;;;;;5.88;2.00;;;;;;;-148.88;80.08;-17125.47;5035820;28;20037;-89
2023/05/20 01:59:08;;;;;;;4.45;2.00;;;;;;;-148.88;80.65;-17125.47;5036070;28;20128;-88
2023/05/20 02:01:33;;;;;;;5.43;2.15;;;;;;;-148.88;81.66;-17125.47;5035962;28;20072;-88
2023/05/20 02:03:59;;;;;;;3.80;2.45;;;;;;;-148.88;84.69;-17125.47;5035417;28;20021;-88
2023/05/20 02:06:24;;;;;;;6.53;2.70;;;;;;;-148.88;85.57;-17125.47;5035529;28;20024;-88
2023/05/20 02:08:50;;;;;;;4.57;2.08;;;;;;;-148.88;86.15;-17125.47;5034119;28;20025;-88
2023/05/20 02:11:15;;;;;;;3.47;2.30;;;;;;;-148.88;86.30;-17125.47;5035157;28;20034;-88
2023/05/20 02:13:40;;;;;;;4.35;2.08;;;;;;;-148.88;86.65;-17125.47;5033679;28;20395;-88
2023/05/20 02:16:06;;;;;;;3.15;2.00;;;;;;;-148.88;86.31;-17125.47;5035309;28;20079;-88
2023/05/20 02:18:34;;;;;;;5.43;2.45;;;;;;;-148.88;86.41;-17125.47;5033810;28;20075;-88
2023/05/20 02:21:02;;;;;;;4.72;2.20;;;;;;;-148.88;86.08;-17125.47;5034780;28;20021;-88
2023/05/20 02:23:28;;;;;;;4.50;2.58;;;;;;;-148.88;85.59;-17125.47;5035060;28;20033;-87
2023/05/20 02:25:54;;;;;;;5.55;2.75;;;;;;;-148.88;85.50;-17125.47;5035282;28;20423;-88
2023/05/20 02:28:19;;;;;;;3.78;2.15;;;;;;;-148.88;85.61;-17125.47;5035080;28;20051;-88
2023/05/20 02:30:45;;;;;;;3.70;2.03;;;;;;;-148.88;84.97;-17125.47;5034883;28;20467;-89
2023/05/20 02:33:11;;;;;;;4.32;2.08;;;;;;;-148.88;85.09;-17125.47;5033690;28;20555;-89
2023/05/20 02:35:36;;;;;;;4.38;2.25;;;;;;;-148.88;85.01;-17125.47;5034652;28;20511;-88
2023/05/20 02:38:02;;;;;;;3.78;2.38;;;;;;;-148.88;86.10;-17125.47;5033998;28;20029;-85
2023/05/20 02:40:27;;;;;;;4.90;2.70;;;;;;;-148.88;87.41;-17125.47;5032943;28;20079;-84
2023/05/20 02:42:53;;;;;;;3.75;2.38;;;;;;;-148.88;87.66;-17125.47;5034585;28;20029;-88
2023/05/20 02:45:18;;;;;;;4.72;2.47;;;;;;;-148.88;87.58;-17125.47;5033985;28;20499;-88
2023/05/20 02:47:43;;;;;;;4.95;2.50;;;;;;;-148.88;87.28;-17125.47;5034721;28;20048;-87
2023/05/20 02:50:09;;;;;;;3.45;2.15;;;;;;;-148.88;87.58;-17125.47;5034660;28;20075;-89
2023/05/20 02:52:35;;;;;;;3.28;2.35;;;;;;;-148.88;88.92;-17125.47;5034318;28;20025;-88
2023/05/20 02:55:00;;;;;;;7.05;2.47;;;;;;;-148.88;88.30;-17125.47;5034049;28;20113;-89
2023/05/20 02:57:27;;;;;;;4.45;2.75;;;;;;;-148.88;88.43;-17125.47;5035249;28;20533;-89
2023/05/20 02:59:54;;;;;;;5.20;2.65;;;;;;;-148.88;88.99;-17125.47;5035743;28;20017;-88
2023/05/20 03:02:19;;;;;;;4.28;2.35;;;;;;;-148.88;88.93;-17125.47;5035458;28;20143;-89
2023/05/20 03:04:45;;;;;;;4.45;2.70;;;;;;;-148.88;89.16;-17125.47;5035292;28;20025;-90
2023/05/20 03:07:11;;;;;;;3.58;2.30;;;;;;;-148.88;89.23;-17125.47;5033429;28;20498;-89
2023/05/20 03:09:37;;;;;;;3.80;2.70;;;;;;;-148.88;89.80;-17125.47;5034924;28;20021;-89
2023/05/20 03:12:02;;;;;;;4.40;2.90;;;;;;;-148.88;90.47;-17125.47;5035375;28;20030;-90
2023/05/20 03:14:28;;;;;;;5.72;2.58;;;;;;;-148.88;90.75;-17125.47;5035259;28;20373;-89
2023/05/20 03:16:56;;;;;;;6.10;3.22;;;;;;;-148.88;91.51;-17125.47;5034493;28;20049;-89
2023/05/20 03:19:24;;;;;;;4.18;2.95;;;;;;;-148.88;91.88;-17125.47;5035009;28;20438;-88
2023/05/20 03:21:50;;;;;;;6.32;2.95;;;;;;;-148.88;93.68;-17125.47;5033458;28;20491;-90
2023/05/20 03:24:18;;;;;;;4.95;3.25;;;;;;;-148.88;94.45;-17125.47;5035032;28;20057;-88
2023/05/20 03:26:45;;;;;;;5.22;2.85;;;;;;;-148.88;94.42;-17125.47;5033342;28;20468;-87
2023/05/20 03:29:10;;;;;;;3.97;2.67;;;;;;;-148.88;94.60;-17125.47;5033619;28;20082;-87
2023/05/20 03:31:36;;;;;;;4.90;2.58;;;;;;;-148.88;94.88;-17125.47;5032862;28;20108;-87
2023/05/20 03:34:01;;;;;;;4.55;2.80;;;;;;;-148.88;95.55;-17125.47;5034252;28;20407;-89
2023/05/20 03:36:27;;;;;;;4.43;2.50;;;;;;;-148.88;95.36;-17125.47;5035172;28;20018;-89
2023/05/20 03:38:52;;;;;;;6.30;2.40;;;;;;;-148.88;95.75;-17125.47;5033992;28;20072;-89
2023/05/20 03:41:18;;;;;;;5.18;2.67;;;;;;;-148.88;94.43;-17125.47;5033551;28;20021;-89
2023/05/20 03:43:44;;;;;;;4.10;2.42;;;;;;;-148.88;94.09;-17125.47;5034098;28;20029;-90
2023/05/20 03:46:09;;;;;;;4.35;2.42;;;;;;;-148.88;93.69;-17125.47;5032551;28;20017;-90
2023/05/20 03:48:37;;;;;;;4.30;2.50;;;;;;;-148.88;93.54;-17125.47;5034013;28;20053;-89
2023/05/20 03:51:03;;;;;;;3.67;2.47;;;;;;;-148.88;93.33;-17125.47;5032443;28;20399;-89
2023/05/20 03:53:29;;;;;;;3.83;2.55;;;;;;;-148.88;93.82;-17125.47;5033883;28;20104;-89
2023/05/20 03:55:54;;;;;;;5.05;2.55;;;;;;;-148.88;93.35;-17125.47;5032251;28;20026;-89
2023/05/20 03:58:21;;;;;;;4.05;2.38;;;;;;;-148.88;93.26;-17125.47;5033603;28;20438;-88
2023/05/20 04:00:46;;;;;;;4.97;2.22;;;;;;;-148.88;93.56;-17125.47;5033862;28;20049;-86
2023/05/20 04:03:12;;;;;;;3.53;2.30;;;;;;;-148.88;93.31;-17125.47;5034107;28;20038;-88
2023/05/20 04:05:37;;;;;;;6.47;2.25;;;;;;;-148.88;93.30;-17125.47;5034135;28;20021;-89
2023/05/20 04:08:03;;;;;;;4.40;2.33;;;;;;;-148.88;92.72;-17125.47;5032663;28;20041;-89
2023/05/20 04:10:31;;;;;;;3.85;2.30;;;;;;;-148.88;93.58;-17125.47;5031883;28;20123;-89
2023/05/20 04:12:57;;;;;;;3.25;2.30;;;;;;;-148.88;93.30;-17125.47;5035971;28;20018;-89
2023/05/20 04:15:22;;;;;;;4.88;2.25;;;;;;;-148.88;93.53;-17125.47;5037257;28;20055;-89
2023/05/20 04:17:49;;;;;;;3.22;2.30;;;;;;;-148.88;93.58;-17125.47;5036305;28;20120;-88
2023/05/20 04:20:14;;;;;;;4.45;2.42;;;;;;;-148.88;92.81;-17125.47;5036499;28;20075;-86
2023/05/20 04:22:40;;;;;;;3.50;2.10;;;;;;;-148.88;92.53;-17125.47;5035829;28;20026;-88
2023/05/20 04:25:08;;;;;;;3.72;2.17;;;;;;;-148.88;92.67;-17125.47;5035658;28;20059;-87
2023/05/20 04:27:34;;;;;;;5.07;2.58;;;;;;;-148.88;92.68;-17125.47;5036133;28;20025;-88
2023/05/20 04:30:01;;;;;;;3.88;2.20;;;;;;;-148.88;91.88;-17125.47;5037406;28;20108;-88
2023/05/20 04:32:26;;;;;;;4.55;2.10;;;;;;;-148.88;91.47;-17125.47;5037390;28;20029;-89
2023/05/20 04:34:54;;;;;;;4.38;2.35;;;;;;;-148.88;91.24;-17125.47;5036522;28;20561;-89
2023/05/20 04:37:19;;;;;;;3.78;2.03;;;;;;;-148.88;91.33;-17125.47;5036821;28;20128;-88
2023/05/20 04:39:47;;;;;;;4.13;2.10;;;;;;;-148.88;91.27;-17125.47;5036013;28;20120;-86
2023/05/20 04:42:12;;;;;;;6.63;2.47;;;;;;;-148.88;91.14;-17125.47;5037256;28;20050;-88
2023/05/20 04:44:38;;;;;;;3.75;1.98;;;;;;;-148.88;91.11;-17125.47;5035797;28;20447;-89
2023/05/20 04:47:06;;;;;;;4.47;2.10;;;;;;;-148.88;90.96;-17125.47;5036053;28;20029;-89
2023/05/20 04:49:33;;;;;;;3.58;2.10;;;;;;;-148.88;91.54;-17125.47;5036826;28;20022;-88
2023/05/20 04:51:59;;;;;;;4.70;2.10;;;;;;;-148.88;90.64;-17125.47;5037119;28;20026;-88
2023/05/20 04:54:25;;;;;;;2.75;1.90;;;;;;;-148.88;90.53;-17125.47;5035730;28;20044;-87
2023/05/20 04:56:50;;;;;;;3.70;2.03;;;;;;;-148.88;90.61;-17125.47;5035449;28;20025;-86
2023/05/20 04:59:16;;;;;;;4.90;2.10;;;;;;;-148.88;91.88;-17125.47;5036835;28;20100;-87
2023/05/20 05:01:41;;;;;;;3.13;2.05;;;;;;;-148.88;91.01;-17125.47;5036139;28;20025;-87
2023/05/20 05:04:06;;;;;;;4.90;2.30;;;;;;;-148.88;90.90;-17125.47;5036867;28;20025;-87
2023/05/20 05:06:32;;;;;;;3.75;2.10;;;;;;;-148.88;90.75;-17125.47;5036307;28;20068;-87
2023/05/20 05:08:57;;;;;;;4.03;2.35;;;;;;;-148.88;90.58;-17125.47;5034908;28;20023;-87
2023/05/20 05:11:23;;;;;;;4.75;2.55;;;;;;;-148.88;89.82;-17125.47;5035279;28;20028;-83
2023/05/20 05:13:48;;;;;;;3.63;2.30;;;;;;;-148.88;90.17;-17125.47;5035958;28;20087;-84
2023/05/20 05:16:14;;;;;;;3.92;2.20;;;;;;;-148.88;89.87;-17125.47;5036023;28;20471;-85
2023/05/20 05:18:39;;;;;;;3.38;1.70;;;;;;;-148.88;89.27;-17125.47;5036087;28;20426;-85
2023/05/20 05:21:05;;;;;;;4.63;2.38;;;;;;;-148.88;90.23;-17125.47;5036008;28;20025;-85
2023/05/20 05:23:32;;;;;;;5.03;2.40;;;;;;;-148.88;90.40;-17125.47;5035666;28;20060;-84
2023/05/20 05:25:59;;;;;;;6.13;2.30;;;;;;;-148.88;90.49;-17125.47;5038958;28;20017;-85
2023/05/20 05:28:25;;;;;;;4.40;2.47;;;;;;;-148.88;88.57;-17125.47;5042012;28;20026;-85
2023/05/20 05:30:53;;;;;;;4.72;2.58;;;;;;;-148.88;89.13;-17125.47;5042140;28;20033;-85
2023/05/20 05:33:18;;;;;;;4.95;2.50;;;;;;;-148.88;88.73;-17125.47;5042547;28;20026;-84
2023/05/20 05:35:43;;;;;;;4.13;2.22;;;;;;;-148.88;89.14;-17125.47;5042648;28;20539;-84
2023/05/20 05:38:09;;;;;;;4.75;2.25;;;;;;;-148.88;88.58;-17125.47;5042374;28;20392;-85
2023/05/20 05:40:35;;;;;;;5.28;2.45;;;;;;;-148.88;88.72;-17125.47;5038145;28;20033;-85
2023/05/20 05:43:00;;;;;;;4.63;2.53;;;;;;;-148.88;88.70;-17125.47;5035734;28;20026;-84
2023/05/20 05:45:25;;;;;;;5.55;2.60;;;;;;;-148.88;88.11;-17125.47;5034554;28;20427;-84
2023/05/20 05:47:51;;;;;;;3.85;2.65;;;;;;;-148.88;88.23;-17125.47;5035716;28;20025;-85
2023/05/20 05:50:16;;;;;;;4.75;2.67;;;;;;;-148.88;88.77;-17125.47;5035672;28;20032;-85
2023/05/20 05:52:41;;;;;;;4.25;2.53;;;;;;;-148.88;87.72;-17125.47;5036051;28;20033;-85
2023/05/20 05:55:08;;;;;;;6.38;2.80;;;;;;;-148.88;87.95;-17125.47;5035911;28;20040;-84
2023/05/20 05:57:34;;;;;;;4.25;2.78;;;;;;;-148.88;88.21;-17125.47;5037447;28;20025;-85
2023/05/20 05:59:59;;;;;;;6.28;2.35;;;;;;;-148.88;87.52;-17125.47;5035797;28;20029;-85
2023/05/20 06:02:26;;;;;;;3.95;2.40;;;;;;;-148.88;86.84;-17125.47;5036275;28;20040;-85
2023/05/20 06:04:51;;;;;;;4.03;2.47;;;;;;;-148.88;86.80;-17125.47;5037132;28;20040;-85
2023/05/20 06:07:17;;;;;;;2.72;2.17;;;;;;;-148.88;85.20;-17125.47;5038528;28;20457;-85
2023/05/20 06:09:43;;;;;;;3.95;2.60;;;;;;;-148.88;86.10;-17125.47;5038309;28;20025;-84
2023/05/20 06:12:08;;;;;;;5.05;2.47;;;;;;;-148.88;86.34;-17125.47;5039032;28;20085;-85
2023/05/20 06:14:34;;;;;;;4.00;2.60;;;;;;;-148.88;85.34;-17125.47;5039606;28;20064;-85
2023/05/20 06:17:00;;;;;;;3.63;2.40;;;;;;;-148.88;84.66;-17125.47;5037120;28;20052;-85
2023/05/20 06:19:25;;;;;;;4.53;2.83;;;;;;;-148.88;85.57;-17125.47;5035134;28;20032;-85
2023/05/20 06:21:50;;;;;;;3.63;2.58;;;;;;;-148.88;85.06;-17125.47;5035054;28;20089;-85
2023/05/20 06:24:16;;;;;;;4.43;2.80;;;;;;;-148.88;86.31;-17125.47;5034682;28;20160;-84
2023/05/20 06:26:41;;;;;;;4.88;2.53;;;;;;;-148.88;84.71;-17125.47;5034942;28;20045;-86
2023/05/20 06:29:06;;;;;;;3.38;2.38;;;;;;;-148.88;84.85;-17125.47;5035755;28;20087;-86
2023/05/20 06:31:32;;;;;;;5.03;2.50;;;;;;;-148.88;85.06;-17125.47;5037336;28;20475;-85
2023/05/20 06:33:57;;;;;;;3.78;2.85;;;;;;;-148.88;85.79;-17125.47;5037347;28;20403;-85
2023/05/20 06:36:23;;;;;;;4.40;2.65;;;;;;;-148.88;83.55;-17125.47;5035120;28;20029;-85
2023/05/20 06:38:48;;;;;;;6.00;3.08;;;;;;;-148.88;82.48;-17125.47;5036452;28;20021;-85
2023/05/20 06:41:13;;;;;;;5.85;2.65;;;;;;;-148.88;83.11;-17125.47;5037247;28;20029;-85
2023/05/20 06:43:39;;;;;;;5.13;3.03;;;;;;;-148.88;82.32;-17125.47;5035199;28;20024;-85
2023/05/20 06:46:05;;;;;;;5.63;2.45;;;;;;;-148.88;84.21;-17125.47;5037664;28;20056;-84
2023/05/20 06:48:31;;;;;;;4.07;2.90;;;;;;;-148.88;82.03;-17125.47;5039946;28;20085;-86
2023/05/20 06:50:56;;;;;;;8.63;2.95;;;;;;;-148.88;83.45;-17125.47;5043771;28;20486;-85
2023/05/20 06:53:22;;;;;;;4.25;2.65;;;;;;;-148.88;82.84;-17125.47;5038674;28;20108;-85
2023/05/20 06:55:47;;;;;;;4.25;2.60;;;;;;;-148.88;84.20;-17125.47;5034771;28;20104;-84
2023/05/20 06:58:12;;;;;;;8.80;3.50;;;;;;;-148.88;83.59;-17125.47;5034936;28;20096;-84
2023/05/20 07:00:38;;;;;;;6.03;3.28;;;;;;;-148.88;83.58;-17125.47;5035011;28;20033;-83
2023/05/20 07:03:03;;;;;;;4.60;3.03;;;;;;;-148.88;82.28;-17125.47;5036496;28;20033;-85
2023/05/20 07:05:30;;;;;;;4.65;3.10;;;;;;;-148.88;83.67;-17125.47;5037412;28;20025;-84
2023/05/20 07:07:55;;;;;;;6.30;3.10;;;;;;;-148.88;81.42;-17125.47;5038143;28;20025;-85
2023/05/20 07:10:21;;;;;;;5.32;2.78;;;;;;;-148.88;82.39;-17125.47;5038759;28;20365;-84
2023/05/20 07:12:46;;;;;;;5.88;2.78;;;;;;;-148.88;82.91;-17125.47;5042251;28;20079;-84
2023/05/20 07:15:12;;;;;;;6.43;3.03;;;;;;;-148.88;82.05;-17125.47;5040425;28;20029;-84
2023/05/20 07:17:37;;;;;;;4.72;3.20;;;;;;;-148.88;82.54;-17125.47;5041393;28;20025;-84
2023/05/20 07:20:03;;;;;;;6.45;3.47;;;;;;;-148.88;83.54;-17125.47;5039772;28;20021;-83
2023/05/20 07:22:28;;;;;;;4.88;3.40;;;;;;;-148.88;81.01;-17125.47;5040581;28;20029;-85
2023/05/20 07:24:54;;;;;;;4.68;3.03;;;;;;;-148.88;83.33;-17125.47;5040494;28;20057;-84
2023/05/20 07:27:19;;;;;;;5.63;3.40;;;;;;;-148.88;81.22;-17125.47;5039880;28;20099;-85
2023/05/20 07:29:45;;;;;;;4.88;3.20;;;;;;;-148.88;84.79;-17125.47;5041970;28;20168;-84
2023/05/20 07:32:10;;;;;;;6.22;3.08;;;;;;;-148.88;83.92;-17125.47;5037161;28;20445;-83
2023/05/20 07:34:36;;;;;;;6.10;3.40;;;;;;;-148.88;81.04;-17125.47;5034427;28;20030;-82
2023/05/20 07:37:01;;;;;;;6.88;3.53;;;;;;;-148.88;82.55;-17125.47;5034626;28;20392;-83
2023/05/20 07:39:27;;;;;;;5.38;3.35;;;;;;;-148.88;81.04;-17125.47;5040094;28;20093;-84
2023/05/20 07:41:52;;;;;;;5.07;3.28;;;;;;;-148.88;79.81;-17125.47;5040464;28;20029;-85
2023/05/20 07:44:17;;;;;;;5.07;3.30;;;;;;;-148.88;78.07;-17125.47;5041846;28;20029;-84
2023/05/20 07:46:43;;;;;;;5.28;2.90;;;;;;;-148.88;80.49;-17125.47;5042134;28;20182;-84
2023/05/20 07:49:09;;;;;;;5.45;3.47;;;;;;;-148.88;78.12;-17125.47;5040286;28;20104;-85
2023/05/20 07:51:34;;;;;;;4.50;3.08;;;;;;;-148.88;78.02;-17125.47;5043658;23;20033;-73
2023/05/20 07:53:59;;;;;;;3.85;3.08;;;;;;;-148.88;78.67;-17125.47;5031855;28;20033;-73
2023/05/20 07:56:25;;;;;;;4.15;2.80;;;;;;;-148.88;78.15;-17125.47;5032994;28;20361;-74
2023/05/20 07:58:54;;;;;;;5.28;2.78;;;;;;;-148.88;74.51;-17125.47;5032996;28;20049;-73
2023/05/20 08:01:20;;;;;;;4.85;2.83;;;;;;;-148.88;74.99;-17125.47;5031684;28;20462;-73
2023/05/20 08:03:45;;;;;;;6.78;2.90;;;;;;;-148.88;74.54;-17125.47;5033013;28;20045;-74
2023/05/20 08:06:11;;;;;;;4.47;2.85;;;;;;;-148.88;76.06;-17125.47;5033097;28;20021;-74
2023/05/20 08:08:36;;;;;;;6.10;3.05;;;;;;;-148.88;73.24;-17125.47;5033231;28;20395;-75
2023/05/20 08:11:02;;;;;;;6.20;3.47;;;;;;;-148.88;74.16;-17125.47;5033341;28;20113;-74
2023/05/20 08:13:28;;;;;;;7.00;2.75;;;;;;;-148.88;74.60;-17125.47;5033522;28;20041;-74
2023/05/20 08:15:53;;;;;;;3.72;2.55;;;;;;;-148.88;74.72;-17125.47;5032796;28;20018;-74
2023/05/20 08:18:19;;;;;;;5.40;3.08;;;;;;;-148.88;73.78;-17125.47;5031601;28;20116;-74
2023/05/20 08:20:44;;;;;;;4.50;2.80;;;;;;;-148.88;71.53;-17125.47;5031870;28;20399;-74
2023/05/20 08:23:10;;;;;;;4.18;3.17;;;;;;;-148.88;71.47;-17125.47;5032043;28;20075;-75
2023/05/20 08:25:37;;;;;;;5.47;2.90;;;;;;;-148.88;74.56;-17125.47;5032988;28;20049;-74
2023/05/20 08:28:04;;;;;;;6.57;2.95;;;;;;;-148.88;74.07;-17125.47;5033134;28;20056;-74
2023/05/20 08:30:29;;;;;;;6.40;2.83;;;;;;;-148.88;70.39;-17125.47;5031524;28;20076;-75
2023/05/20 08:32:55;;;;;;;5.13;2.50;;;;;;;-148.88;71.72;-17125.47;5032747;28;20076;-74
2023/05/20 08:35:21;;;;;;;5.65;2.90;;;;;;;-148.88;71.23;-17125.47;5032627;28;20025;-74
2023/05/20 08:37:46;;;;;;;7.78;3.00;;;;;;;-148.88;71.73;-17125.47;5032857;28;20033;-74
2023/05/20 08:40:12;;;;;;;8.10;3.17;;;;;;;-148.88;69.31;-17125.47;5032638;28;20025;-74
2023/05/20 08:42:48;;;;;;;4.80;2.60;;;;;;;-148.88;68.66;-17125.47;5032526;28;20036;-74
2023/05/20 08:45:16;;;;;;;3.95;2.25;;;;;;;-148.88;68.13;-17125.47;5032532;28;20082;-74
2023/05/20 08:47:43;;;;;;;5.20;2.88;;;;;;;-148.88;69.54;-17125.47;5032523;28;20033;-74
2023/05/20 08:50:10;;;;;;;6.10;2.47;;;;;;;-148.88;68.24;-17125.47;5032721;28;20032;-74
2023/05/20 08:52:37;;;;;;;2.75;2.08;;;;;;;-148.88;67.45;-17125.47;5032540;28;20052;-73
2023/05/20 08:55:06;;;;;;;4.65;2.58;;;;;;;-148.88;67.32;-17125.47;5032829;28;20030;-73
2023/05/20 08:57:32;;;;;;;5.60;2.60;;;;;;;-148.88;66.51;-17125.47;5032864;28;20438;-73
2023/05/20 08:59:58;;;;;;;6.35;2.78;;;;;;;-148.88;64.44;-17125.47;5033768;28;20026;-74
2023/05/20 09:02:23;;;;;;;5.93;2.10;;;;;;;-148.88;65.34;-17125.47;5036957;28;20074;-74
2023/05/20 09:04:48;;;;;;;5.25;2.67;;;;;;;-148.88;65.55;-17125.47;5036360;28;20037;-73
2023/05/20 09:07:25;;;;;;;4.93;2.60;;;;;;;-148.88;63.15;-17125.47;5036125;28;20021;-75
2023/05/20 09:09:51;;;;;;;5.25;2.75;;;;;;;-148.88;62.22;-17125.47;5036703;28;20033;-74
2023/05/20 09:12:16;;;;;;;4.55;2.55;;;;;;;-148.88;64.50;-17125.47;5036563;28;20040;-73
2023/05/20 09:14:42;;;;;;;9.88;3.85;;;;;;;-148.88;65.36;-17125.47;5035937;28;20025;-74
2023/05/20 09:17:07;;;;;;;4.78;2.50;;;;;;;-148.88;62.59;-17125.47;5036075;28;20030;-74
2023/05/20 09:19:32;;;;;;;6.05;2.53;;;;;;;-148.88;63.33;-17125.47;5036073;28;20018;-73
2023/05/20 09:21:58;;;;;;;5.68;2.38;;;;;;;-148.88;63.23;-17125.47;5035830;28;20053;-74
2023/05/20 09:24:25;;;;;;;10.23;2.67;;;;;;;-148.88;65.11;-17125.47;5035923;28;20063;-74
2023/05/20 09:26:51;;;;;;;7.00;3.22;;;;;;;-148.88;65.03;-17125.47;5035746;28;20096;-74
2023/05/20 09:29:16;;;;;;;7.32;3.10;;;;;;;-148.88;61.82;-17125.47;5035664;28;20060;-75
2023/05/20 09:31:42;;;;;;;4.65;2.78;;;;;;;-148.88;60.58;-17125.47;5035944;28;20045;-74
2023/05/20 09:34:08;;;;;;;5.57;2.90;;;;;;;-148.88;60.97;-17125.47;5035963;28;20065;-74
2023/05/20 09:36:34;;;;;;;7.80;3.00;;;;;;;-148.88;62.78;-17125.47;5035845;28;20036;-75
2023/05/20 09:39:04;;;;;;;4.75;2.42;;;;;;;-148.88;63.88;-17125.47;5035922;28;20028;-76
2023/05/20 09:41:38;;;;;;;4.68;2.50;;;;;;;-148.88;60.01;-17125.47;5035271;28;20063;-75
2023/05/20 09:44:05;;;;;;;;;;;;;;;-148.88;59.38;-17125.47;5034738;28;20025;-75
2023/05/20 09:46:32;;;;;;;4.95;2.60;;;;;;;-148.88;61.13;-17125.47;5035613;28;19916;-75
2023/05/20 09:48:58;;;;;;;4.38;2.60;;;;;;;-148.88;60.96;-17125.47;5035658;28;20017;-75
2023/05/20 09:51:25;;;;;;;5.20;2.50;;;;;;;-148.88;59.33;-17125.47;5034172;28;20460;-76
2023/05/20 09:53:51;;;;;;;3.75;2.28;;;;;;;-148.88;59.33;-17125.47;5035531;28;20021;-76
2023/05/20 09:56:21;;;;;;;4.90;2.22;;;;;;;-148.88;60.00;-17125.47;5035033;28;20024;-75
2023/05/20 09:58:48;;;;;;;4.45;2.40;;;;;;;-148.88;62.90;-17125.47;5033956;28;20484;-76
2023/05/20 10:01:14;;;;;;;5.80;2.97;;;;;;;-148.88;62.82;-17125.47;5035092;28;20033;-75
2023/05/20 10:03:39;;;;;;;3.95;2.20;;;;;;;-148.88;61.28;-17125.47;5035074;28;20021;-75
2023/05/20 10:06:33;;;;;;;3.97;2.40;;;;;;;-148.88;61.39;-17125.47;5034970;28;20021;-75
2023/05/20 10:09:11;;;;;;;4.18;2.28;;;;;;;-148.88;60.66;-17125.47;5041043;28;20040;-76
2023/05/20 10:12:04;;;;;;;4.00;2.58;;;;;;;-148.88;62.18;-17125.47;5034064;28;20055;-75
2023/05/20 10:14:48;;;;;;;5.45;2.17;;;;;;;-148.88;59.19;-17125.47;5033736;28;20025;-75
2023/05/20 10:17:24;;;;;;;3.83;2.28;;;;;;;-148.88;61.20;-17125.47;5034724;28;20021;-75
2023/05/20 10:19:56;;;;;;;4.85;2.30;;;;;;;-148.88;60.70;-17125.47;5034776;28;20083;-75
2023/05/20 10:22:29;;;;;;;3.60;2.40;;;;;;;-148.88;61.30;-17125.47;5034755;28;20028;-75
2023/05/20 10:24:59;;;;;;;4.57;2.70;;;;;;;-148.88;62.08;-17125.47;5033577;28;20022;-75
2023/05/20 10:27:25;;;;;;;4.25;2.60;;;;;;;-148.88;62.85;-17125.47;5034552;28;20546;-76
2023/05/20 10:29:56;;;;;;;4.05;2.03;;;;;;;-148.88;59.41;-17125.47;5034620;28;20021;-75
2023/05/20 10:32:26;;;;;;;4.10;2.38;;;;;;;-148.88;60.61;-17125.47;5034445;28;20080;-76
2023/05/20 10:34:52;;;;;;;4.03;2.35;;;;;;;-148.88;63.10;-17125.47;5033118;28;20060;-75
2023/05/20 10:37:26;;;;;;;4.07;2.45;;;;;;;-148.88;62.97;-17125.47;5030359;28;20049;-75
2023/05/20 10:39:51;;;;;;;5.00;2.65;;;;;;;-148.88;63.03;-17125.47;5048679;28;20086;-75
2023/05/20 10:42:27;;;;;;;3.55;2.30;;;;;;;-148.88;63.88;-17125.47;5049130;28;20391;-74
2023/05/20 10:44:52;;;;;;;4.35;2.50;;;;;;;-148.88;60.16;-17125.47;5014074;28;20034;-75
2023/05/20 10:47:17;;;;;;;4.13;2.85;;;;;;;-148.88;59.43;-17125.47;5013955;28;20025;-75
2023/05/20 10:49:47;;;;;;;3.97;2.50;;;;;;;-148.88;59.06;-17125.47;5017404;28;20033;-75
2023/05/20 10:52:13;;;;;;;3.65;2.25;;;;;;;-148.88;59.99;-17125.47;5014295;28;20531;-75
2023/05/20 10:54:46;;;;;;;3.47;2.22;;;;;;;-148.88;61.13;-17125.47;5014271;28;20050;-76
2023/05/20 10:57:11;;;;;;;3.88;2.22;;;;;;;-148.88;57.41;-17125.47;5014477;28;20026;-75
2023/05/20 10:59:37;;;;;;;5.47;2.33;;;;;;;-148.88;58.14;-17125.47;5014228;28;20033;-74
2023/05/20 11:02:03;;;;;;;4.47;2.58;;;;;;;-148.88;60.33;-17125.47;5014379;28;20088;-75
2023/05/20 11:04:29;;;;;;;6.55;3.00;;;;;;;-148.88;58.46;-17125.47;5013923;28;20032;-76
2023/05/20 11:06:54;;;;;;;6.82;3.28;;;;;;;-148.88;60.30;-17125.47;5014022;28;20473;-75